Main page
METAR-TAF:

METAR-TAF

Airports :

Tiree Airport

Tiree, Scotland

latitude: 56-30N, longitude: 006-53W, elevation: 12 m

Current weather observation

The report was made 15 minutes ago, at 04:20 UTC
Wind 15 kt from the Southwest
Temperature 11°C
Humidity 94%
Pressure 1001 hPa
Visibility 10 km or more
light rain

METAR: EGPU 160420Z AUTO 23015KT 9999 -RA FEW041/// 11/10 Q1001

Time: 05:35 (04:35 UTC)

Forecast

The report was made 14 hours and 33 minutes ago, at 14:02 UTC
Forecast valid from 15 at 15 UTC to 15 at 18 UTC
Wind 18 kt from the South/Southwest
Visibility 10 km or more
Broken clouds at a height of 4500 ft
Temporary
from 15 at 15 UTC to 15 at 17 UTC
Wind 21 kt from the South/Southwest with gusts up to 31 kt
Visibility: 7000 m
Broken clouds at a height of 1200 ft
rain

TAF: EGPU 151402Z 1515/1518 21018KT 9999 BKN045 TEMPO 1515/1517 21021G31KT 7000 RA BKN012

Weather observations and forecasts of more than 4000 airports (METAR and TAF reports).

The available stations are represented by yellow and red dots on the map.

Hover mouse over dot to see the name of the station.

Then click to see weather observations and forecasts.

To change the map : click on the green buttons with a black cross to zoom in, on the green button with a dash to zoom out, or on the green arrows for adjacent maps.


METAR-TAF: